createdAt,value
2018-08-28T00:01:43.899Z,18.40
2018-08-28T00:04:11.569Z,18.40
2018-08-28T00:06:39.175Z,18.50
2018-08-28T00:09:06.839Z,18.60
2018-08-28T00:11:34.464Z,18.60
2018-08-28T00:14:02.102Z,18.60
2018-08-28T00:16:29.730Z,18.60
2018-08-28T00:18:57.391Z,18.70
2018-08-28T00:21:25.024Z,18.70
2018-08-28T00:23:52.647Z,18.70
2018-08-28T00:26:20.271Z,18.70
2018-08-28T00:28:47.903Z,18.70
2018-08-28T00:31:15.587Z,18.60
2018-08-28T00:33:43.244Z,18.60
2018-08-28T00:36:10.875Z,18.60
2018-08-28T00:38:38.487Z,18.60
2018-08-28T00:41:06.359Z,18.60
2018-08-28T00:43:33.998Z,18.60
2018-08-28T00:46:01.653Z,18.50
2018-08-28T00:48:29.287Z,18.30
2018-08-28T00:50:56.895Z,18.20
2018-08-28T00:53:24.512Z,18.10
2018-08-28T00:55:52.130Z,18.00
2018-08-28T00:58:19.757Z,17.90
2018-08-28T01:00:47.404Z,17.80
2018-08-28T01:03:15.007Z,17.80
2018-08-28T01:05:42.634Z,17.70
2018-08-28T01:08:10.259Z,17.70
2018-08-28T01:10:37.868Z,17.60
2018-08-28T01:13:05.526Z,17.60
2018-08-28T01:15:33.155Z,17.50
2018-08-28T01:18:00.810Z,17.50
2018-08-28T01:20:28.443Z,17.40
2018-08-28T01:22:56.094Z,17.40
2018-08-28T01:25:23.722Z,17.30
2018-08-28T01:27:51.377Z,17.30
2018-08-28T01:30:23.596Z,17.20
2018-08-28T01:32:51.290Z,17.20
2018-08-28T01:35:18.886Z,17.20
2018-08-28T01:37:46.539Z,17.10
2018-08-28T01:40:14.172Z,17.10
2018-08-28T01:42:41.811Z,17.10
2018-08-28T01:45:16.001Z,17.00
2018-08-28T01:47:43.601Z,17.00
2018-08-28T01:50:11.219Z,17.00
2018-08-28T01:52:38.871Z,16.90
2018-08-28T01:55:06.530Z,16.80
2018-08-28T01:57:34.180Z,16.80
2018-08-28T02:00:01.886Z,16.70
2018-08-28T02:02:29.508Z,16.70
2018-08-28T02:04:57.157Z,16.60
2018-08-28T02:07:24.787Z,16.50
2018-08-28T02:09:52.438Z,16.50
2018-08-28T02:12:20.184Z,16.50
2018-08-28T02:14:47.823Z,16.40
2018-08-28T02:17:15.449Z,16.40
2018-08-28T02:19:43.103Z,16.30
2018-08-28T02:22:10.719Z,16.30
2018-08-28T02:24:38.370Z,16.30
2018-08-28T02:27:06.089Z,16.40
2018-08-28T02:29:33.701Z,16.20
2018-08-28T02:32:01.298Z,16.20
2018-08-28T02:34:28.973Z,16.20
2018-08-28T02:36:56.622Z,16.10
2018-08-28T02:39:24.320Z,16.10
2018-08-28T02:41:52.046Z,16.10
2018-08-28T02:44:19.679Z,16.10
2018-08-28T02:46:47.353Z,16.00
2018-08-28T02:49:14.974Z,16.00
2018-08-28T02:51:42.607Z,15.90
2018-08-28T02:54:10.278Z,15.90
2018-08-28T02:56:37.899Z,16.00
2018-08-28T02:59:05.552Z,15.90
2018-08-28T03:01:33.195Z,15.90
2018-08-28T03:04:01.494Z,15.90
2018-08-28T03:06:29.172Z,15.90
2018-08-28T03:08:56.858Z,15.80
2018-08-28T03:11:24.588Z,15.80
2018-08-28T03:13:52.222Z,15.80
2018-08-28T03:16:19.814Z,15.70
2018-08-28T03:18:47.443Z,15.80
2018-08-28T03:21:15.095Z,15.70
2018-08-28T03:23:42.741Z,15.70
2018-08-28T03:26:10.417Z,15.60
2018-08-28T03:28:38.306Z,15.60
2018-08-28T03:31:12.507Z,15.50
2018-08-28T03:33:40.136Z,15.50
2018-08-28T03:36:07.750Z,15.50
2018-08-28T03:38:35.367Z,15.50
2018-08-28T03:41:03.008Z,15.40
2018-08-28T03:43:30.634Z,15.40
2018-08-28T03:45:58.267Z,15.40
2018-08-28T03:48:25.892Z,15.30
2018-08-28T03:50:53.567Z,15.30
2018-08-28T03:53:21.466Z,15.30
2018-08-28T03:55:49.359Z,15.30
2018-08-28T03:58:16.973Z,15.30
2018-08-28T04:00:44.614Z,15.30
2018-08-28T04:03:12.294Z,15.30
2018-08-28T04:05:39.982Z,15.30
2018-08-28T04:08:07.616Z,15.20
2018-08-28T04:10:35.299Z,15.20
2018-08-28T04:13:02.960Z,15.10
2018-08-28T04:15:30.588Z,18.20
2018-08-28T04:17:58.203Z,15.00
2018-08-28T04:20:25.856Z,15.00
2018-08-28T04:22:53.530Z,15.00
2018-08-28T04:25:21.131Z,15.00
2018-08-28T04:27:48.726Z,15.00
2018-08-28T04:30:16.741Z,14.90
2018-08-28T04:32:44.383Z,14.90
2018-08-28T04:35:12.009Z,15.00
2018-08-28T04:37:39.626Z,15.00
2018-08-28T04:40:07.331Z,15.00
2018-08-28T04:42:34.954Z,15.00
2018-08-28T04:45:02.679Z,15.10
2018-08-28T04:47:30.290Z,15.10
2018-08-28T04:49:57.939Z,15.20
2018-08-28T04:52:25.662Z,15.30
2018-08-28T04:54:53.314Z,15.40
2018-08-28T04:57:20.978Z,15.60
2018-08-28T04:59:48.642Z,15.80
2018-08-28T05:02:16.504Z,16.00
2018-08-28T05:04:44.140Z,16.30
2018-08-28T05:07:11.752Z,17.10
2018-08-28T05:09:39.392Z,17.60
2018-08-28T05:12:07.914Z,17.50
2018-08-28T05:14:35.554Z,17.60
2018-08-28T05:17:03.324Z,18.20
2018-08-28T05:19:30.980Z,18.90
2018-08-28T05:21:58.681Z,19.50
2018-08-28T05:24:26.306Z,19.80
2018-08-28T05:26:54.030Z,20.50
2018-08-28T05:29:22.004Z,20.70
2018-08-28T05:31:49.656Z,20.30
2018-08-28T05:34:17.335Z,20.10
2018-08-28T05:36:44.966Z,20.30
2018-08-28T05:39:13.026Z,20.60
2018-08-28T05:41:40.634Z,21.40
2018-08-28T05:44:08.295Z,22.20
2018-08-28T05:46:35.944Z,21.70
2018-08-28T05:49:03.619Z,21.50
2018-08-28T05:51:31.227Z,22.30
2018-08-28T05:53:58.922Z,23.10
2018-08-28T05:56:26.546Z,24.00
2018-08-28T05:58:54.243Z,25.30
2018-08-28T06:01:21.876Z,25.50
2018-08-28T06:03:49.522Z,25.60
2018-08-28T06:06:17.216Z,25.50
2018-08-28T06:08:44.865Z,25.60
2018-08-28T06:11:12.571Z,25.70
2018-08-28T06:13:40.263Z,25.90
2018-08-28T06:16:07.870Z,26.40
2018-08-28T06:18:35.597Z,27.30
2018-08-28T06:21:03.259Z,27.60
2018-08-28T06:23:30.922Z,28.10
2018-08-28T06:25:59.419Z,28.60
2018-08-28T06:28:27.047Z,30.20
2018-08-28T06:30:54.739Z,31.50
2018-08-28T06:33:22.369Z,31.60
2018-08-28T06:35:50.136Z,32.30
2018-08-28T06:38:17.798Z,32.70
2018-08-28T06:40:45.414Z,33.50
2018-08-28T06:43:13.022Z,34.80
2018-08-28T06:45:40.682Z,35.60
2018-08-28T06:48:08.310Z,36.30
2018-08-28T06:50:35.934Z,36.60
2018-08-28T06:53:03.625Z,37.30
2018-08-28T06:55:31.248Z,37.50
2018-08-28T06:57:58.887Z,38.20
2018-08-28T07:00:26.565Z,37.10
2018-08-28T07:02:54.191Z,36.60
2018-08-28T07:05:21.896Z,36.50
2018-08-28T07:07:49.557Z,36.50
2018-08-28T07:10:17.217Z,37.10
2018-08-28T07:12:44.838Z,38.30
2018-08-28T07:15:12.470Z,38.60
2018-08-28T07:17:40.154Z,38.40
2018-08-28T07:20:07.809Z,38.50
2018-08-28T07:22:35.473Z,39.50
2018-08-28T07:25:03.165Z,39.40
2018-08-28T07:27:30.856Z,40.00
2018-08-28T07:29:58.502Z,40.30
2018-08-28T07:32:26.126Z,40.40
2018-08-28T07:34:53.748Z,38.50
2018-08-28T07:37:21.444Z,40.10
2018-08-28T07:39:49.138Z,39.40
2018-08-28T07:42:16.738Z,38.90
2018-08-28T07:44:44.356Z,39.60
2018-08-28T07:47:11.998Z,40.70
2018-08-28T07:49:39.645Z,40.70
2018-08-28T07:52:07.300Z,39.80
2018-08-28T07:54:34.927Z,40.40
2018-08-28T07:57:02.541Z,40.80
2018-08-28T07:59:30.164Z,40.10
2018-08-28T08:01:57.814Z,40.60
2018-08-28T08:04:25.488Z,40.60
2018-08-28T08:06:53.079Z,40.50
2018-08-28T08:09:20.689Z,40.40
2018-08-28T08:11:48.355Z,40.00
2018-08-28T08:14:15.975Z,39.20
2018-08-28T08:16:43.593Z,37.30
2018-08-28T08:19:11.231Z,34.40
2018-08-28T08:21:38.893Z,32.50
2018-08-28T08:24:06.706Z,31.20
2018-08-28T08:26:34.358Z,30.40
2018-08-28T08:29:01.985Z,28.90
2018-08-28T08:31:29.622Z,28.30
2018-08-28T08:33:57.306Z,28.10
2018-08-28T08:36:24.938Z,28.20
2018-08-28T08:38:52.564Z,26.90
2018-08-28T08:41:20.340Z,24.90
2018-08-28T08:43:47.960Z,24.80
2018-08-28T08:51:10.694Z,25.50
2018-08-28T08:53:38.308Z,25.40
2018-08-28T08:56:05.995Z,25.60
2018-08-28T08:58:33.643Z,25.50
2018-08-28T09:01:01.297Z,25.50
2018-08-28T09:03:28.975Z,25.20
2018-08-28T09:05:56.708Z,25.10
2018-08-28T09:08:24.330Z,25.10
2018-08-28T09:10:51.970Z,24.80
2018-08-28T09:15:47.268Z,25.10
2018-08-28T09:18:14.928Z,25.20
2018-08-28T09:20:42.566Z,25.20
2018-08-28T09:23:10.179Z,25.10
2018-08-28T09:25:37.801Z,25.30
2018-08-28T09:28:05.409Z,25.50
2018-08-28T09:30:33.035Z,25.50
2018-08-28T09:33:00.654Z,25.80
2018-08-28T09:35:28.257Z,26.00
2018-08-28T09:37:55.878Z,26.10
2018-08-28T09:40:23.491Z,26.20
2018-08-28T09:42:51.108Z,26.40
2018-08-28T09:45:18.739Z,25.90
2018-08-28T09:47:46.356Z,26.20
2018-08-28T09:50:13.974Z,26.30
2018-08-28T09:52:41.622Z,26.60
2018-08-28T09:55:09.315Z,26.50
2018-08-28T09:57:36.967Z,26.80
2018-08-28T10:00:05.177Z,26.50
2018-08-28T10:02:32.858Z,26.30
2018-08-28T10:05:00.500Z,26.50
2018-08-28T10:07:28.176Z,26.40
2018-08-28T10:09:55.799Z,26.40
2018-08-28T10:12:23.431Z,26.50
2018-08-28T10:14:51.058Z,26.70
2018-08-28T10:17:18.689Z,26.70
2018-08-28T10:19:46.321Z,26.70
2018-08-28T10:22:14.009Z,26.40
2018-08-28T10:24:41.646Z,26.20
2018-08-28T10:27:09.291Z,25.90
2018-08-28T10:29:36.904Z,25.90
2018-08-28T10:32:04.664Z,26.30
2018-08-28T10:34:32.294Z,26.00
2018-08-28T10:36:59.924Z,26.20
2018-08-28T10:39:27.527Z,26.10
2018-08-28T10:41:55.147Z,25.90
2018-08-28T10:44:22.776Z,26.20
2018-08-28T10:46:50.569Z,26.40
2018-08-28T10:49:18.055Z,26.40
2018-08-28T10:51:45.714Z,26.10
2018-08-28T10:54:13.360Z,25.80
2018-08-28T10:56:40.962Z,25.80
2018-08-28T10:59:08.623Z,25.80
2018-08-28T11:01:36.251Z,25.70
2018-08-28T11:04:03.902Z,25.70
2018-08-28T11:06:31.534Z,25.80
2018-08-28T11:08:59.172Z,25.90
2018-08-28T11:11:26.807Z,25.90
2018-08-28T11:13:54.432Z,25.60
2018-08-28T11:16:22.044Z,25.60
2018-08-28T11:18:49.769Z,25.40
2018-08-28T11:21:17.396Z,25.40
2018-08-28T11:23:45.011Z,25.60
2018-08-28T11:26:12.650Z,25.60
2018-08-28T11:28:40.273Z,25.80
2018-08-28T11:31:07.890Z,25.80
2018-08-28T11:33:35.611Z,25.50
2018-08-28T11:36:03.379Z,25.70
2018-08-28T11:38:31.097Z,25.70
2018-08-28T11:40:58.719Z,25.60
2018-08-28T11:43:26.319Z,25.70
2018-08-28T11:45:53.967Z,25.80
2018-08-28T11:48:21.601Z,25.90
2018-08-28T11:50:49.214Z,25.90
2018-08-28T11:53:16.892Z,25.90
2018-08-28T11:55:44.607Z,26.00
2018-08-28T11:58:12.276Z,26.10
2018-08-28T12:00:39.935Z,26.00
2018-08-28T12:03:07.547Z,26.00
2018-08-28T12:05:35.209Z,25.80
2018-08-28T12:08:02.956Z,25.50
2018-08-28T12:10:30.628Z,25.50
2018-08-28T12:12:58.403Z,25.50
2018-08-28T12:15:26.048Z,25.30
2018-08-28T12:17:53.652Z,25.40
2018-08-28T12:20:21.371Z,25.50
2018-08-28T12:22:49.007Z,25.70
2018-08-28T12:25:16.632Z,25.50
2018-08-28T12:27:44.240Z,25.60
2018-08-28T12:30:11.922Z,25.80
2018-08-28T12:32:39.539Z,25.70
2018-08-28T12:35:07.387Z,25.40
2018-08-28T12:37:35.003Z,25.40
2018-08-28T12:40:02.646Z,25.50
2018-08-28T12:42:30.734Z,25.50
2018-08-28T12:44:58.368Z,25.40
2018-08-28T12:47:25.987Z,25.40
2018-08-28T12:49:53.614Z,25.20
2018-08-28T12:54:48.907Z,24.90
2018-08-28T12:57:16.761Z,24.80
2018-08-28T12:59:44.404Z,24.80
2018-08-28T13:04:39.595Z,24.90
2018-08-28T13:07:07.731Z,25.00
2018-08-28T13:12:03.608Z,25.00
2018-08-28T13:14:33.330Z,25.00
2018-08-28T13:17:00.941Z,25.10
2018-08-28T13:19:28.571Z,25.10
2018-08-28T13:21:56.191Z,25.00
2018-08-28T13:24:23.819Z,25.20
2018-08-28T13:26:52.553Z,25.30
2018-08-28T13:29:20.187Z,25.20
2018-08-28T13:31:47.806Z,25.20
2018-08-28T13:34:15.395Z,25.30
2018-08-28T13:36:43.034Z,25.20
2018-08-28T13:39:10.654Z,25.30
2018-08-28T13:41:38.297Z,25.20
2018-08-28T13:44:06.040Z,25.40
2018-08-28T13:46:33.670Z,25.40
2018-08-28T13:49:01.286Z,25.40
2018-08-28T13:51:28.942Z,25.50
2018-08-28T13:53:56.657Z,25.50
2018-08-28T13:56:24.211Z,25.50
2018-08-28T13:58:51.858Z,25.60
2018-08-28T14:01:19.650Z,25.60
2018-08-28T14:03:47.246Z,25.60
2018-08-28T14:06:14.884Z,25.70
2018-08-28T14:08:42.514Z,25.60
2018-08-28T14:11:10.438Z,25.70
2018-08-28T14:13:38.450Z,25.60
2018-08-28T14:16:06.941Z,25.70
2018-08-28T14:18:35.408Z,25.80
2018-08-28T14:21:03.142Z,25.70
2018-08-28T14:23:31.977Z,25.70
2018-08-28T14:26:00.732Z,25.80
2018-08-28T14:28:28.438Z,25.80
2018-08-28T14:30:56.361Z,25.70
2018-08-28T14:33:24.031Z,25.60
2018-08-28T14:35:51.667Z,25.50
2018-08-28T14:38:19.651Z,25.50
2018-08-28T14:40:47.864Z,25.40
2018-08-28T14:43:16.332Z,25.40
2018-08-28T14:45:44.977Z,25.50
2018-08-28T14:48:14.031Z,25.50
2018-08-28T14:50:43.001Z,25.50
2018-08-28T14:53:12.711Z,25.50
2018-08-28T14:55:41.572Z,25.40
2018-08-28T14:58:09.741Z,25.40
2018-08-28T15:00:39.877Z,25.40
2018-08-28T15:03:07.983Z,25.30
2018-08-28T15:05:35.988Z,25.30
2018-08-28T15:08:04.289Z,25.30
2018-08-28T15:10:32.077Z,25.30
2018-08-28T15:13:00.043Z,25.30
2018-08-28T15:15:28.062Z,25.30
2018-08-28T15:17:56.789Z,25.30
2018-08-28T15:20:24.979Z,25.40
2018-08-28T15:22:53.925Z,25.50
2018-08-28T15:25:22.419Z,25.50
2018-08-28T15:27:50.831Z,25.40
2018-08-28T15:30:19.299Z,25.50
2018-08-28T15:32:47.827Z,25.50
2018-08-28T15:35:16.460Z,28.00
2018-08-28T15:37:44.933Z,25.50
2018-08-28T15:40:13.279Z,25.30
2018-08-28T15:42:41.967Z,25.30
2018-08-28T15:45:10.463Z,25.50
2018-08-28T15:47:38.961Z,25.50
2018-08-28T15:50:07.676Z,25.50
2018-08-28T15:52:35.364Z,25.50
2018-08-28T15:55:03.052Z,25.40
2018-08-28T15:57:30.757Z,25.50
2018-08-28T15:59:58.439Z,25.50
2018-08-28T16:02:26.141Z,25.50
2018-08-28T16:04:53.766Z,25.50
2018-08-28T16:07:21.456Z,25.40
2018-08-28T16:09:49.111Z,25.10
2018-08-28T16:12:17.758Z,25.10
2018-08-28T16:14:46.313Z,25.20
2018-08-28T16:17:15.637Z,25.20
2018-08-28T16:19:44.026Z,25.20
2018-08-28T16:22:12.939Z,25.20
2018-08-28T16:24:40.785Z,25.20
2018-08-28T16:27:09.335Z,25.10
2018-08-28T16:29:37.738Z,25.10
2018-08-28T16:32:07.404Z,25.10
2018-08-28T16:34:36.064Z,25.10
2018-08-28T16:37:05.285Z,25.10
2018-08-28T16:39:35.434Z,24.80
2018-08-28T16:42:04.331Z,24.80
2018-08-28T16:44:32.300Z,24.70
2018-08-28T16:47:00.182Z,24.70
2018-08-28T16:49:28.710Z,24.60
2018-08-28T16:51:57.504Z,24.50
2018-08-28T16:54:26.627Z,24.40
2018-08-28T16:56:54.610Z,24.40
2018-08-28T16:59:22.546Z,24.50
2018-08-28T17:01:50.507Z,24.50
2018-08-28T17:04:18.953Z,24.40
2018-08-28T17:06:47.463Z,24.40
2018-08-28T17:09:15.740Z,24.40
2018-08-28T17:11:44.393Z,24.30
2018-08-28T17:14:13.453Z,24.30
2018-08-28T17:16:41.995Z,24.10
2018-08-28T17:19:11.274Z,24.10
2018-08-28T17:21:39.599Z,24.10
2018-08-28T17:24:09.233Z,24.00
2018-08-28T17:26:37.178Z,23.90
2018-08-28T17:29:05.070Z,23.90
2018-08-28T17:31:32.710Z,23.90
2018-08-28T17:34:00.399Z,23.80
2018-08-28T17:36:28.023Z,23.80
2018-08-28T17:38:55.725Z,23.70
2018-08-28T17:41:23.366Z,23.70
2018-08-28T17:43:50.976Z,23.60
2018-08-28T17:46:18.715Z,23.60
2018-08-28T17:48:46.381Z,23.40
2018-08-28T17:51:14.051Z,23.30
2018-08-28T17:53:41.666Z,23.30
2018-08-28T17:56:09.495Z,23.30
2018-08-28T17:58:37.143Z,23.20
2018-08-28T18:01:04.918Z,23.10
2018-08-28T18:03:32.633Z,23.10
2018-08-28T18:06:00.291Z,25.60
2018-08-28T18:08:28.760Z,23.00
2018-08-28T18:10:56.475Z,22.90
2018-08-28T18:13:24.189Z,22.90
2018-08-28T18:15:51.802Z,22.80
2018-08-28T18:18:19.414Z,22.70
2018-08-28T18:20:47.172Z,22.70
2018-08-28T18:23:15.052Z,22.60
2018-08-28T18:25:43.071Z,22.50
2018-08-28T18:28:12.251Z,22.40
2018-08-28T18:30:41.406Z,22.30
2018-08-28T18:33:10.280Z,22.20
2018-08-28T18:35:38.867Z,22.10
2018-08-28T18:38:07.138Z,21.90
2018-08-28T18:40:35.834Z,21.90
2018-08-28T18:43:04.119Z,21.80
2018-08-28T18:45:32.640Z,21.80
2018-08-28T18:48:01.222Z,21.70
2018-08-28T18:50:29.148Z,21.50
2018-08-28T18:52:57.068Z,21.40
2018-08-28T18:55:25.175Z,21.40
2018-08-28T18:57:53.420Z,21.30
2018-08-28T19:00:22.005Z,21.30
2018-08-28T19:02:50.554Z,21.20
2018-08-28T19:05:18.850Z,21.10
2018-08-28T19:07:47.312Z,21.00
2018-08-28T19:10:15.788Z,21.00
2018-08-28T19:15:12.409Z,20.90
2018-08-28T19:17:42.180Z,20.80
2018-08-28T19:20:18.879Z,20.80
2018-08-28T19:22:48.910Z,20.80
2018-08-28T19:25:18.474Z,20.70
2018-08-28T19:27:47.009Z,20.70
2018-08-28T19:30:16.006Z,20.60
2018-08-28T19:32:43.717Z,20.60
2018-08-28T19:35:11.666Z,20.60
2018-08-28T19:37:39.396Z,20.50
2018-08-28T19:40:07.122Z,20.40
2018-08-28T19:42:34.858Z,20.40
2018-08-28T19:45:02.544Z,20.40
2018-08-28T19:47:30.226Z,20.30
2018-08-28T19:49:58.246Z,20.30
2018-08-28T19:52:26.062Z,20.20
2018-08-28T19:54:54.219Z,20.20
2018-08-28T19:57:22.171Z,20.10
2018-08-28T19:59:49.870Z,20.10
2018-08-28T20:02:18.379Z,20.00
2018-08-28T20:04:47.031Z,19.90
2018-08-28T20:07:18.373Z,19.90
2018-08-28T20:09:46.582Z,19.80
2018-08-28T20:12:14.257Z,19.90
2018-08-28T20:14:41.919Z,19.70
2018-08-28T20:17:09.637Z,19.70
2018-08-28T20:19:37.275Z,19.60
2018-08-28T20:22:07.403Z,19.60
2018-08-28T20:24:35.076Z,19.50
2018-08-28T20:27:03.533Z,19.50
2018-08-28T20:29:31.235Z,19.40
2018-08-28T20:31:58.922Z,19.30
2018-08-28T20:34:26.548Z,19.30
2018-08-28T20:36:54.174Z,19.20
2018-08-28T20:39:21.848Z,19.10
2018-08-28T20:41:49.572Z,19.10
2018-08-28T20:44:17.212Z,19.00
2018-08-28T20:46:44.835Z,19.00
2018-08-28T20:49:12.490Z,18.90
2018-08-28T20:51:40.095Z,18.80
2018-08-28T20:54:07.715Z,18.70
2018-08-28T20:56:35.351Z,18.60
2018-08-28T20:59:03.042Z,18.60
2018-08-28T21:01:30.667Z,18.60
2018-08-28T21:03:58.276Z,18.50
2018-08-28T21:06:25.925Z,18.50
2018-08-28T21:08:53.568Z,18.40
2018-08-28T21:11:21.213Z,18.40
2018-08-28T21:13:49.168Z,18.40
2018-08-28T21:16:16.823Z,18.30
2018-08-28T21:18:44.494Z,18.40
2018-08-28T21:21:12.114Z,18.20
2018-08-28T21:23:39.798Z,18.20
2018-08-28T21:26:07.703Z,18.10
2018-08-28T21:28:35.363Z,18.10
2018-08-28T21:31:03.046Z,18.00
2018-08-28T21:33:30.754Z,18.00
2018-08-28T21:35:58.368Z,18.00
2018-08-28T21:38:25.966Z,18.00
2018-08-28T21:40:53.641Z,18.00
2018-08-28T21:43:21.228Z,17.90
2018-08-28T21:45:48.946Z,17.90
2018-08-28T21:48:16.624Z,17.90
2018-08-28T21:50:44.199Z,17.90
2018-08-28T21:53:11.806Z,17.80
2018-08-28T21:55:39.479Z,17.80
2018-08-28T21:58:07.104Z,17.80
2018-08-28T22:00:34.710Z,17.80
2018-08-28T22:03:02.434Z,17.80
2018-08-28T22:05:31.135Z,17.80
2018-08-28T22:08:00.792Z,17.80
2018-08-28T22:10:28.997Z,17.80
2018-08-28T22:12:56.707Z,17.90
2018-08-28T22:15:24.343Z,17.90
2018-08-28T22:17:52.167Z,17.90
2018-08-28T22:20:19.824Z,17.90
2018-08-28T22:22:47.490Z,17.90
2018-08-28T22:25:15.322Z,18.00
2018-08-28T22:27:42.994Z,18.00
2018-08-28T22:30:11.063Z,18.00
2018-08-28T22:32:39.567Z,18.00
2018-08-28T22:35:07.296Z,18.10
2018-08-28T22:37:35.187Z,18.10
2018-08-28T22:40:03.207Z,18.20
2018-08-28T22:42:30.828Z,18.10
2018-08-28T22:44:58.495Z,18.10
2018-08-28T22:47:26.108Z,18.10
2018-08-28T22:49:53.808Z,18.00
2018-08-28T22:52:21.393Z,17.90
2018-08-28T22:54:49.042Z,18.00
2018-08-28T22:57:16.664Z,17.90
2018-08-28T22:59:44.286Z,17.90
2018-08-28T23:02:11.935Z,17.80
2018-08-28T23:04:39.582Z,17.80
2018-08-28T23:07:07.260Z,17.80
2018-08-28T23:09:34.846Z,17.70
2018-08-28T23:12:02.459Z,17.70
2018-08-28T23:14:30.112Z,17.60
2018-08-28T23:16:57.795Z,17.60
2018-08-28T23:19:25.447Z,17.60
2018-08-28T23:21:53.085Z,17.50
2018-08-28T23:24:20.729Z,17.50
2018-08-28T23:26:48.368Z,17.40
2018-08-28T23:29:16.119Z,17.40
2018-08-28T23:31:43.750Z,17.40
2018-08-28T23:34:11.374Z,17.40
2018-08-28T23:36:39.006Z,17.40
2018-08-28T23:39:07.070Z,17.40
2018-08-28T23:41:34.699Z,17.40
2018-08-28T23:44:02.449Z,17.30
2018-08-28T23:46:30.071Z,17.30
2018-08-28T23:48:57.705Z,17.30
2018-08-28T23:51:25.311Z,17.30
2018-08-28T23:53:52.940Z,17.30
2018-08-28T23:56:20.546Z,17.30
2018-08-28T23:58:48.163Z,17.30
